sensor_id;sensor_type;location;lat;lon;timestamp;P1;P2;P0
68713;PMS7003;55690;51.566;19.198;2023-07-29T00:02:05;7;6;6
68713;PMS7003;55690;51.566;19.198;2023-07-29T00:06:11;6;5;5
68713;PMS7003;55690;51.566;19.198;2023-07-29T00:10:17;7;7;5
68713;PMS7003;55690;51.566;19.198;2023-07-29T00:14:23;5;5;4
68713;PMS7003;55690;51.566;19.198;2023-07-29T00:18:30;11;5;5
68713;PMS7003;55690;51.566;19.198;2023-07-29T00:22:36;7;7;3
68713;PMS7003;55690;51.566;19.198;2023-07-29T00:26:42;2;2;2
68713;PMS7003;55690;51.566;19.198;2023-07-29T00:30:48;5;4;4
68713;PMS7003;55690;51.566;19.198;2023-07-29T00:34:54;3;3;3
68713;PMS7003;55690;51.566;19.198;2023-07-29T00:39:00;3;3;3
68713;PMS7003;55690;51.566;19.198;2023-07-29T00:43:07;4;4;3
68713;PMS7003;55690;51.566;19.198;2023-07-29T00:47:13;6;4;3
68713;PMS7003;55690;51.566;19.198;2023-07-29T00:51:19;6;3;2
68713;PMS7003;55690;51.566;19.198;2023-07-29T00:55:25;7;5;5
68713;PMS7003;55690;51.566;19.198;2023-07-29T00:59:32;3;3;3
68713;PMS7003;55690;51.566;19.198;2023-07-29T01:03:37;8;5;4
68713;PMS7003;55690;51.566;19.198;2023-07-29T01:12:00;5;5;4
68713;PMS7003;55690;51.566;19.198;2023-07-29T01:16:21;3;3;3
68713;PMS7003;55690;51.566;19.198;2023-07-29T01:20:21;4;4;4
68713;PMS7003;55690;51.566;19.198;2023-07-29T01:24:26;3;3;2
68713;PMS7003;55690;51.566;19.198;2023-07-29T01:28:28;5;5;3
68713;PMS7003;55690;51.566;19.198;2023-07-29T01:32:35;4;4;3
68713;PMS7003;55690;51.566;19.198;2023-07-29T01:36:44;9;3;3
68713;PMS7003;55690;51.566;19.198;2023-07-29T01:40:50;4;4;4
68713;PMS7003;55690;51.566;19.198;2023-07-29T01:44:53;3;3;3
68713;PMS7003;55690;51.566;19.198;2023-07-29T01:48:55;7;5;4
68713;PMS7003;55690;51.566;19.198;2023-07-29T01:52:56;5;5;3
68713;PMS7003;55690;51.566;19.198;2023-07-29T01:56:58;7;7;5
68713;PMS7003;55690;51.566;19.198;2023-07-29T02:01:04;6;4;4
68713;PMS7003;55690;51.566;19.198;2023-07-29T02:05:10;7;7;5
68713;PMS7003;55690;51.566;19.198;2023-07-29T02:09:16;10;4;4
68713;PMS7003;55690;51.566;19.198;2023-07-29T02:13:22;8;4;3
68713;PMS7003;55690;51.566;19.198;2023-07-29T02:17:28;3;3;3
68713;PMS7003;55690;51.566;19.198;2023-07-29T02:21:35;5;5;5
68713;PMS7003;55690;51.566;19.198;2023-07-29T02:25:41;3;3;2
68713;PMS7003;55690;51.566;19.198;2023-07-29T02:29:47;7;7;6
68713;PMS7003;55690;51.566;19.198;2023-07-29T02:33:53;5;3;3
68713;PMS7003;55690;51.566;19.198;2023-07-29T02:37:59;7;6;5
68713;PMS7003;55690;51.566;19.198;2023-07-29T02:42:05;6;6;5
68713;PMS7003;55690;51.566;19.198;2023-07-29T02:46:15;3;3;3
68713;PMS7003;55690;51.566;19.198;2023-07-29T02:50:29;15;13;11
68713;PMS7003;55690;51.566;19.198;2023-07-29T02:54:37;8;8;6
68713;PMS7003;55690;51.566;19.198;2023-07-29T02:58:40;6;6;5
68713;PMS7003;55690;51.566;19.198;2023-07-29T03:02:42;7;7;4
68713;PMS7003;55690;51.566;19.198;2023-07-29T03:06:54;6;3;3
68713;PMS7003;55690;51.566;19.198;2023-07-29T03:10:55;8;5;4
68713;PMS7003;55690;51.566;19.198;2023-07-29T03:14:58;4;4;3
68713;PMS7003;55690;51.566;19.198;2023-07-29T03:19:01;4;4;4
68713;PMS7003;55690;51.566;19.198;2023-07-29T03:23:07;3;3;3
68713;PMS7003;55690;51.566;19.198;2023-07-29T03:27:13;4;4;3
68713;PMS7003;55690;51.566;19.198;2023-07-29T03:31:19;9;5;5
68713;PMS7003;55690;51.566;19.198;2023-07-29T03:35:26;5;5;4
68713;PMS7003;55690;51.566;19.198;2023-07-29T03:39:32;10;7;6
68713;PMS7003;55690;51.566;19.198;2023-07-29T03:43:38;3;2;2
68713;PMS7003;55690;51.566;19.198;2023-07-29T03:47:44;6;6;6
68713;PMS7003;55690;51.566;19.198;2023-07-29T03:51:50;12;7;5
68713;PMS7003;55690;51.566;19.198;2023-07-29T03:55:56;8;5;5
68713;PMS7003;55690;51.566;19.198;2023-07-29T04:00:03;5;5;4
68713;PMS7003;55690;51.566;19.198;2023-07-29T04:04:09;1;1;1
68713;PMS7003;55690;51.566;19.198;2023-07-29T04:08:24;8;6;5
68713;PMS7003;55690;51.566;19.198;2023-07-29T04:12:23;8;5;5
68713;PMS7003;55690;51.566;19.198;2023-07-29T04:16:27;4;4;3
68713;PMS7003;55690;51.566;19.198;2023-07-29T04:20:33;6;6;4
68713;PMS7003;55690;51.566;19.198;2023-07-29T04:24:40;6;6;4
68713;PMS7003;55690;51.566;19.198;2023-07-29T04:28:46;8;5;4
68713;PMS7003;55690;51.566;19.198;2023-07-29T04:32:52;6;6;4
68713;PMS7003;55690;51.566;19.198;2023-07-29T04:36:58;9;8;4
68713;PMS7003;55690;51.566;19.198;2023-07-29T04:41:04;8;6;6
68713;PMS7003;55690;51.566;19.198;2023-07-29T04:45:10;8;8;7
68713;PMS7003;55690;51.566;19.198;2023-07-29T04:49:17;9;7;5
68713;PMS7003;55690;51.566;19.198;2023-07-29T04:53:25;6;6;5
68713;PMS7003;55690;51.566;19.198;2023-07-29T04:57:29;8;6;4
68713;PMS7003;55690;51.566;19.198;2023-07-29T05:01:35;6;6;4
68713;PMS7003;55690;51.566;19.198;2023-07-29T05:05:49;21;10;8
68713;PMS7003;55690;51.566;19.198;2023-07-29T05:10:02;9;9;7
68713;PMS7003;55690;51.566;19.198;2023-07-29T05:14:05;5;5;4
68713;PMS7003;55690;51.566;19.198;2023-07-29T05:18:07;8;6;5
68713;PMS7003;55690;51.566;19.198;2023-07-29T05:22:09;10;8;7
68713;PMS7003;55690;51.566;19.198;2023-07-29T05:26:12;9;9;6
68713;PMS7003;55690;51.566;19.198;2023-07-29T05:30:18;7;7;6
68713;PMS7003;55690;51.566;19.198;2023-07-29T05:34:24;6;6;5
68713;PMS7003;55690;51.566;19.198;2023-07-29T05:38:30;6;6;5
68713;PMS7003;55690;51.566;19.198;2023-07-29T05:42:46;16;9;8
68713;PMS7003;55690;51.566;19.198;2023-07-29T05:46:48;12;9;7
68713;PMS7003;55690;51.566;19.198;2023-07-29T05:50:53;12;12;9
68713;PMS7003;55690;51.566;19.198;2023-07-29T05:54:55;10;10;7
68713;PMS7003;55690;51.566;19.198;2023-07-29T05:59:10;18;9;7
68713;PMS7003;55690;51.566;19.198;2023-07-29T06:03:09;10;8;6
68713;PMS7003;55690;51.566;19.198;2023-07-29T06:07:14;8;8;7
68713;PMS7003;55690;51.566;19.198;2023-07-29T06:11:20;4;4;4
68713;PMS7003;55690;51.566;19.198;2023-07-29T06:15:28;8;8;6
68713;PMS7003;55690;51.566;19.198;2023-07-29T06:19:32;8;8;6
68713;PMS7003;55690;51.566;19.198;2023-07-29T06:23:39;16;9;8
68713;PMS7003;55690;51.566;19.198;2023-07-29T06:27:45;9;9;8
68713;PMS7003;55690;51.566;19.198;2023-07-29T06:31:51;18;11;8
68713;PMS7003;55690;51.566;19.198;2023-07-29T06:35:57;6;4;2
68713;PMS7003;55690;51.566;19.198;2023-07-29T06:40:04;10;10;9
68713;PMS7003;55690;51.566;19.198;2023-07-29T06:44:09;10;9;8
68713;PMS7003;55690;51.566;19.198;2023-07-29T06:48:16;10;9;8
68713;PMS7003;55690;51.566;19.198;2023-07-29T06:52:22;9;5;5
68713;PMS7003;55690;51.566;19.198;2023-07-29T06:56:30;10;7;6
68713;PMS7003;55690;51.566;19.198;2023-07-29T07:00:35;8;8;7
68713;PMS7003;55690;51.566;19.198;2023-07-29T07:04:40;5;5;4
68713;PMS7003;55690;51.566;19.198;2023-07-29T07:08:47;9;9;8
68713;PMS7003;55690;51.566;19.198;2023-07-29T07:12:53;6;6;6
68713;PMS7003;55690;51.566;19.198;2023-07-29T07:16:59;6;6;6
68713;PMS7003;55690;51.566;19.198;2023-07-29T07:21:05;13;6;6
68713;PMS7003;55690;51.566;19.198;2023-07-29T07:25:15;2;2;1
68713;PMS7003;55690;51.566;19.198;2023-07-29T07:29:27;4;4;4
68713;PMS7003;55690;51.566;19.198;2023-07-29T07:33:26;5;5;5
68713;PMS7003;55690;51.566;19.198;2023-07-29T07:37:34;9;5;3
68713;PMS7003;55690;51.566;19.198;2023-07-29T07:41:43;5;5;5
68713;PMS7003;55690;51.566;19.198;2023-07-29T07:45:49;3;3;3
68713;PMS7003;55690;51.566;19.198;2023-07-29T07:49:51;3;3;3
68713;PMS7003;55690;51.566;19.198;2023-07-29T07:54:01;3;3;2
68713;PMS7003;55690;51.566;19.198;2023-07-29T07:58:03;2;2;2
68713;PMS7003;55690;51.566;19.198;2023-07-29T08:02:06;5;5;4
68713;PMS7003;55690;51.566;19.198;2023-07-29T08:10:22;0;0;0
68713;PMS7003;55690;51.566;19.198;2023-07-29T08:14:25;3;3;3
68713;PMS7003;55690;51.566;19.198;2023-07-29T08:18:31;3;3;3
68713;PMS7003;55690;51.566;19.198;2023-07-29T08:22:37;3;3;3
68713;PMS7003;55690;51.566;19.198;2023-07-29T08:26:43;1;1;1
68713;PMS7003;55690;51.566;19.198;2023-07-29T08:30:50;2;2;2
68713;PMS7003;55690;51.566;19.198;2023-07-29T08:34:56;3;3;2
68713;PMS7003;55690;51.566;19.198;2023-07-29T08:39:05;2;2;2
68713;PMS7003;55690;51.566;19.198;2023-07-29T08:43:08;1;1;1
68713;PMS7003;55690;51.566;19.198;2023-07-29T08:47:14;2;2;2
68713;PMS7003;55690;51.566;19.198;2023-07-29T08:51:21;8;5;5
68713;PMS7003;55690;51.566;19.198;2023-07-29T08:55:26;4;4;4
68713;PMS7003;55690;51.566;19.198;2023-07-29T08:59:33;3;3;3
68713;PMS7003;55690;51.566;19.198;2023-07-29T09:03:40;3;3;3
68713;PMS7003;55690;51.566;19.198;2023-07-29T09:07:46;3;3;3
68713;PMS7003;55690;51.566;19.198;2023-07-29T09:11:51;4;4;3
68713;PMS7003;55690;51.566;19.198;2023-07-29T09:16:03;3;3;3
68713;PMS7003;55690;51.566;19.198;2023-07-29T09:20:06;3;3;3
68713;PMS7003;55690;51.566;19.198;2023-07-29T09:24:15;4;4;4
68713;PMS7003;55690;51.566;19.198;2023-07-29T09:28:32;4;3;2
68713;PMS7003;55690;51.566;19.198;2023-07-29T09:32:35;2;2;2
68713;PMS7003;55690;51.566;19.198;2023-07-29T09:36:41;2;2;2
68713;PMS7003;55690;51.566;19.198;2023-07-29T09:40:51;2;2;1
68713;PMS7003;55690;51.566;19.198;2023-07-29T09:45:05;3;3;2
68713;PMS7003;55690;51.566;19.198;2023-07-29T09:49:09;3;3;3
68713;PMS7003;55690;51.566;19.198;2023-07-29T09:53:13;2;2;2
68713;PMS7003;55690;51.566;19.198;2023-07-29T09:57:16;3;2;2
68713;PMS7003;55690;51.566;19.198;2023-07-29T10:01:20;2;2;2
68713;PMS7003;55690;51.566;19.198;2023-07-29T10:05:28;2;2;2
68713;PMS7003;55690;51.566;19.198;2023-07-29T10:09:31;4;4;3
68713;PMS7003;55690;51.566;19.198;2023-07-29T10:13:43;2;2;2
68713;PMS7003;55690;51.566;19.198;2023-07-29T10:17:51;3;3;2
68713;PMS7003;55690;51.566;19.198;2023-07-29T10:22:14;3;3;3
68713;PMS7003;55690;51.566;19.198;2023-07-29T10:26:29;3;3;3
68713;PMS7003;55690;51.566;19.198;2023-07-29T10:30:46;4;4;4
68713;PMS7003;55690;51.566;19.198;2023-07-29T10:34:49;3;3;3
68713;PMS7003;55690;51.566;19.198;2023-07-29T10:43:18;3;2;2
68713;PMS7003;55690;51.566;19.198;2023-07-29T10:47:41;4;4;4
68713;PMS7003;55690;51.566;19.198;2023-07-29T10:51:46;9;4;3
68713;PMS7003;55690;51.566;19.198;2023-07-29T10:55:48;2;2;2
68713;PMS7003;55690;51.566;19.198;2023-07-29T11:00:03;3;3;2
68713;PMS7003;55690;51.566;19.198;2023-07-29T11:08:27;2;2;1
68713;PMS7003;55690;51.566;19.198;2023-07-29T11:17:01;2;2;2
68713;PMS7003;55690;51.566;19.198;2023-07-29T11:21:06;3;1;1
68713;PMS7003;55690;51.566;19.198;2023-07-29T11:25:09;2;2;2
68713;PMS7003;55690;51.566;19.198;2023-07-29T11:29:19;1;1;1
68713;PMS7003;55690;51.566;19.198;2023-07-29T11:33:32;3;3;2
68713;PMS7003;55690;51.566;19.198;2023-07-29T11:37:40;5;5;5
68713;PMS7003;55690;51.566;19.198;2023-07-29T11:41:43;4;4;4
68713;PMS7003;55690;51.566;19.198;2023-07-29T11:45:58;6;6;5
68713;PMS7003;55690;51.566;19.198;2023-07-29T11:50:07;7;3;3
68713;PMS7003;55690;51.566;19.198;2023-07-29T11:54:29;4;4;3
68713;PMS7003;55690;51.566;19.198;2023-07-29T11:58:33;4;3;2
68713;PMS7003;55690;51.566;19.198;2023-07-29T12:02:40;4;4;3
68713;PMS7003;55690;51.566;19.198;2023-07-29T12:06:54;4;4;4
68713;PMS7003;55690;51.566;19.198;2023-07-29T12:11:11;2;2;1
68713;PMS7003;55690;51.566;19.198;2023-07-29T12:19:30;5;5;3
68713;PMS7003;55690;51.566;19.198;2023-07-29T12:23:38;2;2;2
68713;PMS7003;55690;51.566;19.198;2023-07-29T12:27:49;3;3;3
68713;PMS7003;55690;51.566;19.198;2023-07-29T12:31:48;3;3;3
68713;PMS7003;55690;51.566;19.198;2023-07-29T12:35:54;3;3;3
68713;PMS7003;55690;51.566;19.198;2023-07-29T12:39:57;1;1;1
68713;PMS7003;55690;51.566;19.198;2023-07-29T12:48:08;2;2;2
68713;PMS7003;55690;51.566;19.198;2023-07-29T12:52:11;4;2;2
68713;PMS7003;55690;51.566;19.198;2023-07-29T12:56:17;2;2;2
68713;PMS7003;55690;51.566;19.198;2023-07-29T13:00:21;6;2;2
68713;PMS7003;55690;51.566;19.198;2023-07-29T13:04:24;0;0;0
68713;PMS7003;55690;51.566;19.198;2023-07-29T13:08:29;3;3;3
68713;PMS7003;55690;51.566;19.198;2023-07-29T13:12:38;2;2;2
68713;PMS7003;55690;51.566;19.198;2023-07-29T13:16:41;3;3;3
68713;PMS7003;55690;51.566;19.198;2023-07-29T13:20:43;3;3;3
68713;PMS7003;55690;51.566;19.198;2023-07-29T13:24:45;2;2;1
68713;PMS7003;55690;51.566;19.198;2023-07-29T13:28:46;5;2;2
68713;PMS7003;55690;51.566;19.198;2023-07-29T13:32:49;2;2;1
68713;PMS7003;55690;51.566;19.198;2023-07-29T13:36:50;3;3;2
68713;PMS7003;55690;51.566;19.198;2023-07-29T13:40:52;2;2;2
68713;PMS7003;55690;51.566;19.198;2023-07-29T13:45:01;3;3;2
68713;PMS7003;55690;51.566;19.198;2023-07-29T13:49:07;2;2;2
68713;PMS7003;55690;51.566;19.198;2023-07-29T13:53:16;3;3;3
68713;PMS7003;55690;51.566;19.198;2023-07-29T13:57:22;1;1;1
68713;PMS7003;55690;51.566;19.198;2023-07-29T14:01:23;3;3;3
68713;PMS7003;55690;51.566;19.198;2023-07-29T14:05:25;3;3;2
68713;PMS7003;55690;51.566;19.198;2023-07-29T14:09:27;2;2;1
68713;PMS7003;55690;51.566;19.198;2023-07-29T14:13:28;2;2;2
68713;PMS7003;55690;51.566;19.198;2023-07-29T14:17:30;3;3;3
68713;PMS7003;55690;51.566;19.198;2023-07-29T14:21:32;2;2;2
68713;PMS7003;55690;51.566;19.198;2023-07-29T14:25:34;2;2;2
68713;PMS7003;55690;51.566;19.198;2023-07-29T14:29:36;2;2;2
68713;PMS7003;55690;51.566;19.198;2023-07-29T14:33:38;1;1;1
68713;PMS7003;55690;51.566;19.198;2023-07-29T14:37:40;2;2;2
68713;PMS7003;55690;51.566;19.198;2023-07-29T14:41:50;1;1;1
68713;PMS7003;55690;51.566;19.198;2023-07-29T14:45:56;2;2;2
68713;PMS7003;55690;51.566;19.198;2023-07-29T14:50:07;2;2;1
68713;PMS7003;55690;51.566;19.198;2023-07-29T14:54:05;2;2;2
68713;PMS7003;55690;51.566;19.198;2023-07-29T14:58:06;1;1;1
68713;PMS7003;55690;51.566;19.198;2023-07-29T15:02:12;2;2;1
68713;PMS7003;55690;51.566;19.198;2023-07-29T15:06:14;1;1;1
68713;PMS7003;55690;51.566;19.198;2023-07-29T15:10:27;1;1;1
68713;PMS7003;55690;51.566;19.198;2023-07-29T15:14:32;4;1;1
68713;PMS7003;55690;51.566;19.198;2023-07-29T15:18:34;2;2;2
68713;PMS7003;55690;51.566;19.198;2023-07-29T15:22:37;2;2;2
68713;PMS7003;55690;51.566;19.198;2023-07-29T15:26:40;1;1;1
68713;PMS7003;55690;51.566;19.198;2023-07-29T15:30:42;1;1;0
68713;PMS7003;55690;51.566;19.198;2023-07-29T15:34:45;1;1;1
68713;PMS7003;55690;51.566;19.198;2023-07-29T15:47:31;2;2;2
68713;PMS7003;55690;51.566;19.198;2023-07-29T15:51:44;2;2;2
68713;PMS7003;55690;51.566;19.198;2023-07-29T15:55:46;6;4;3
68713;PMS7003;55690;51.566;19.198;2023-07-29T15:59:59;2;1;1
68713;PMS7003;55690;51.566;19.198;2023-07-29T16:08:09;3;3;3
68713;PMS7003;55690;51.566;19.198;2023-07-29T16:12:11;3;3;2
68713;PMS7003;55690;51.566;19.198;2023-07-29T16:16:13;4;4;4
68713;PMS7003;55690;51.566;19.198;2023-07-29T16:20:16;1;1;1
68713;PMS7003;55690;51.566;19.198;2023-07-29T16:24:20;3;3;3
68713;PMS7003;55690;51.566;19.198;2023-07-29T16:30:57;3;3;3
68713;PMS7003;55690;51.566;19.198;2023-07-29T16:35:03;5;2;2
68713;PMS7003;55690;51.566;19.198;2023-07-29T16:39:08;3;3;2
68713;PMS7003;55690;51.566;19.198;2023-07-29T16:43:15;2;2;2
68713;PMS7003;55690;51.566;19.198;2023-07-29T16:47:21;4;4;3
68713;PMS7003;55690;51.566;19.198;2023-07-29T16:51:42;3;3;3
68713;PMS7003;55690;51.566;19.198;2023-07-29T16:56:05;4;4;3
68713;PMS7003;55690;51.566;19.198;2023-07-29T17:00:11;4;2;2
68713;PMS7003;55690;51.566;19.198;2023-07-29T17:04:33;4;4;4
68713;PMS7003;55690;51.566;19.198;2023-07-29T17:08:57;1;1;1
68713;PMS7003;55690;51.566;19.198;2023-07-29T17:17:41;3;3;2
68713;PMS7003;55690;51.566;19.198;2023-07-29T17:22:05;3;3;3
68713;PMS7003;55690;51.566;19.198;2023-07-29T17:26:30;2;2;2
68713;PMS7003;55690;51.566;19.198;2023-07-29T17:30:39;3;3;2
68713;PMS7003;55690;51.566;19.198;2023-07-29T17:34:48;2;2;2
68713;PMS7003;55690;51.566;19.198;2023-07-29T17:38:51;4;2;2
68713;PMS7003;55690;51.566;19.198;2023-07-29T17:42:56;3;3;3
68713;PMS7003;55690;51.566;19.198;2023-07-29T17:51:29;2;2;2
68713;PMS7003;55690;51.566;19.198;2023-07-29T17:55:30;2;2;2
68713;PMS7003;55690;51.566;19.198;2023-07-29T17:59:37;2;2;2
68713;PMS7003;55690;51.566;19.198;2023-07-29T18:03:39;4;3;1
68713;PMS7003;55690;51.566;19.198;2023-07-29T18:07:40;2;2;2
68713;PMS7003;55690;51.566;19.198;2023-07-29T18:11:42;3;3;3
68713;PMS7003;55690;51.566;19.198;2023-07-29T18:15:44;3;3;3
68713;PMS7003;55690;51.566;19.198;2023-07-29T18:19:47;3;3;3
68713;PMS7003;55690;51.566;19.198;2023-07-29T18:23:49;1;1;1
68713;PMS7003;55690;51.566;19.198;2023-07-29T18:27:51;2;2;2
68713;PMS7003;55690;51.566;19.198;2023-07-29T18:31:52;4;4;3
68713;PMS7003;55690;51.566;19.198;2023-07-29T18:35:53;3;1;1
68713;PMS7003;55690;51.566;19.198;2023-07-29T18:39:56;3;3;3
68713;PMS7003;55690;51.566;19.198;2023-07-29T18:43:57;2;2;1
68713;PMS7003;55690;51.566;19.198;2023-07-29T18:47:59;3;3;3
68713;PMS7003;55690;51.566;19.198;2023-07-29T18:52:00;3;3;3
68713;PMS7003;55690;51.566;19.198;2023-07-29T18:56:02;6;6;5
68713;PMS7003;55690;51.566;19.198;2023-07-29T19:00:04;2;2;2
68713;PMS7003;55690;51.566;19.198;2023-07-29T19:04:07;1;1;0
68713;PMS7003;55690;51.566;19.198;2023-07-29T19:08:10;1;0;0
68713;PMS7003;55690;51.566;19.198;2023-07-29T19:12:12;2;1;1
68713;PMS7003;55690;51.566;19.198;2023-07-29T19:16:14;2;0;0
68713;PMS7003;55690;51.566;19.198;2023-07-29T19:20:23;0;0;0
68713;PMS7003;55690;51.566;19.198;2023-07-29T19:24:37;1;1;1
68713;PMS7003;55690;51.566;19.198;2023-07-29T19:28:38;1;1;1
68713;PMS7003;55690;51.566;19.198;2023-07-29T19:32:39;0;0;0
68713;PMS7003;55690;51.566;19.198;2023-07-29T19:36:41;0;0;0
68713;PMS7003;55690;51.566;19.198;2023-07-29T19:40:42;2;0;0
68713;PMS7003;55690;51.566;19.198;2023-07-29T19:44:44;0;0;0
68713;PMS7003;55690;51.566;19.198;2023-07-29T19:48:45;0;0;0
68713;PMS7003;55690;51.566;19.198;2023-07-29T19:52:52;0;0;0
68713;PMS7003;55690;51.566;19.198;2023-07-29T19:56:54;0;0;0
68713;PMS7003;55690;51.566;19.198;2023-07-29T20:00:56;0;0;0
68713;PMS7003;55690;51.566;19.198;2023-07-29T20:04:58;2;1;1
68713;PMS7003;55690;51.566;19.198;2023-07-29T20:08:59;0;0;0
68713;PMS7003;55690;51.566;19.198;2023-07-29T20:13:01;6;0;0
68713;PMS7003;55690;51.566;19.198;2023-07-29T20:17:03;1;1;0
68713;PMS7003;55690;51.566;19.198;2023-07-29T20:21:14;2;1;1
68713;PMS7003;55690;51.566;19.198;2023-07-29T20:25:16;0;0;0
68713;PMS7003;55690;51.566;19.198;2023-07-29T20:29:17;0;0;0
68713;PMS7003;55690;51.566;19.198;2023-07-29T20:33:19;1;1;1
68713;PMS7003;55690;51.566;19.198;2023-07-29T20:37:20;1;0;0
68713;PMS7003;55690;51.566;19.198;2023-07-29T20:41:22;4;0;0
68713;PMS7003;55690;51.566;19.198;2023-07-29T20:45:24;2;1;1
68713;PMS7003;55690;51.566;19.198;2023-07-29T20:49:27;0;0;0
68713;PMS7003;55690;51.566;19.198;2023-07-29T20:53:34;1;1;1
68713;PMS7003;55690;51.566;19.198;2023-07-29T20:57:40;4;3;3
68713;PMS7003;55690;51.566;19.198;2023-07-29T21:01:46;2;2;2
68713;PMS7003;55690;51.566;19.198;2023-07-29T21:05:52;1;1;1
68713;PMS7003;55690;51.566;19.198;2023-07-29T21:09:58;2;2;1
68713;PMS7003;55690;51.566;19.198;2023-07-29T21:14:04;0;0;0
68713;PMS7003;55690;51.566;19.198;2023-07-29T21:18:11;1;1;0
68713;PMS7003;55690;51.566;19.198;2023-07-29T21:22:17;2;1;1
68713;PMS7003;55690;51.566;19.198;2023-07-29T21:26:23;1;1;1
68713;PMS7003;55690;51.566;19.198;2023-07-29T21:30:29;1;1;1
68713;PMS7003;55690;51.566;19.198;2023-07-29T21:34:35;2;2;2
68713;PMS7003;55690;51.566;19.198;2023-07-29T21:38:41;1;1;1
68713;PMS7003;55690;51.566;19.198;2023-07-29T21:42:47;2;2;1
68713;PMS7003;55690;51.566;19.198;2023-07-29T21:46:54;1;1;1
68713;PMS7003;55690;51.566;19.198;2023-07-29T21:51:00;1;1;1
68713;PMS7003;55690;51.566;19.198;2023-07-29T21:55:06;2;2;1
68713;PMS7003;55690;51.566;19.198;2023-07-29T21:59:12;2;2;2
68713;PMS7003;55690;51.566;19.198;2023-07-29T22:03:18;2;2;2
68713;PMS7003;55690;51.566;19.198;2023-07-29T22:07:24;0;0;0
68713;PMS7003;55690;51.566;19.198;2023-07-29T22:11:31;2;2;2
68713;PMS7003;55690;51.566;19.198;2023-07-29T22:15:37;4;2;2
68713;PMS7003;55690;51.566;19.198;2023-07-29T22:19:43;1;1;1
68713;PMS7003;55690;51.566;19.198;2023-07-29T22:23:49;1;1;0
68713;PMS7003;55690;51.566;19.198;2023-07-29T22:27:55;1;1;1
68713;PMS7003;55690;51.566;19.198;2023-07-29T22:32:01;1;1;1
68713;PMS7003;55690;51.566;19.198;2023-07-29T22:36:08;1;1;1
68713;PMS7003;55690;51.566;19.198;2023-07-29T22:40:14;3;1;1
68713;PMS7003;55690;51.566;19.198;2023-07-29T22:44:20;1;1;1
68713;PMS7003;55690;51.566;19.198;2023-07-29T22:48:26;2;2;2
68713;PMS7003;55690;51.566;19.198;2023-07-29T22:52:32;9;2;1
68713;PMS7003;55690;51.566;19.198;2023-07-29T22:56:38;2;2;2
68713;PMS7003;55690;51.566;19.198;2023-07-29T23:00:48;1;1;1
68713;PMS7003;55690;51.566;19.198;2023-07-29T23:04:53;2;2;2
68713;PMS7003;55690;51.566;19.198;2023-07-29T23:08:57;2;2;2
68713;PMS7003;55690;51.566;19.198;2023-07-29T23:13:03;1;1;1
68713;PMS7003;55690;51.566;19.198;2023-07-29T23:17:09;1;1;1
68713;PMS7003;55690;51.566;19.198;2023-07-29T23:21:15;3;2;2
68713;PMS7003;55690;51.566;19.198;2023-07-29T23:25:22;1;1;1
68713;PMS7003;55690;51.566;19.198;2023-07-29T23:29:28;0;0;0
68713;PMS7003;55690;51.566;19.198;2023-07-29T23:33:34;3;3;3
68713;PMS7003;55690;51.566;19.198;2023-07-29T23:37:40;2;2;2
68713;PMS7003;55690;51.566;19.198;2023-07-29T23:41:46;4;2;2
68713;PMS7003;55690;51.566;19.198;2023-07-29T23:45:52;1;0;0
68713;PMS7003;55690;51.566;19.198;2023-07-29T23:49:58;2;2;1
68713;PMS7003;55690;51.566;19.198;2023-07-29T23:54:05;2;2;2
68713;PMS7003;55690;51.566;19.198;2023-07-29T23:58:11;1;1;1
